createdAt,value
2019-05-05T02:22:01.304Z,76.90
2019-05-05T02:24:47.271Z,77.00
2019-05-05T02:27:19.824Z,76.90
2019-05-05T02:30:18.650Z,76.90
2019-05-05T02:33:01.422Z,77.40
2019-05-05T02:35:37.997Z,77.40
2019-05-05T02:38:15.552Z,77.50
2019-05-05T02:40:47.450Z,77.20
2019-05-05T02:43:25.074Z,77.90
2019-05-05T02:46:14.493Z,77.60
2019-05-05T02:48:50.732Z,77.60
2019-05-05T02:51:25.955Z,77.70
2019-05-05T02:53:59.543Z,78.00
2019-05-05T02:56:43.694Z,78.00
2019-05-05T02:59:26.909Z,77.70
2019-05-05T03:02:04.850Z,77.70
2019-05-05T03:04:46.300Z,78.00
2019-05-05T03:07:31.343Z,77.90
2019-05-05T03:10:04.342Z,78.20
2019-05-05T03:28:51.576Z,79.60
2019-05-05T03:31:26.056Z,79.30
2019-05-05T03:33:55.231Z,79.10
2019-05-05T03:36:33.910Z,79.90
2019-05-05T03:39:11.537Z,80.50
2019-05-05T03:42:01.084Z,84.50
2019-05-05T03:44:48.328Z,81.20
2019-05-05T03:47:25.805Z,83.40
2019-05-05T03:50:01.592Z,82.80
2019-05-05T03:52:36.695Z,84.80
2019-05-05T03:55:26.918Z,82.30
2019-05-05T03:58:07.501Z,82.70
2019-05-05T04:02:16.489Z,81.00
2019-05-05T04:04:59.647Z,80.20
2019-05-05T04:07:33.463Z,81.60
2019-05-05T04:10:05.684Z,80.80
2019-05-05T04:12:49.429Z,83.30
2019-05-05T04:15:25.110Z,81.20
2019-05-05T04:18:10.461Z,82.00
2019-05-05T04:20:45.590Z,81.60
2019-05-05T04:23:21.440Z,81.30
2019-05-05T04:25:54.422Z,84.90
2019-05-05T04:28:29.294Z,83.80
2019-05-05T04:31:00.000Z,86.80
2019-05-05T04:33:34.147Z,81.40
2019-05-05T04:36:04.972Z,83.40
2019-05-05T04:38:38.391Z,86.00
2019-05-05T04:41:14.049Z,83.00
2019-05-05T04:43:45.261Z,89.50
2019-05-05T04:46:16.401Z,85.30
2019-05-05T04:49:23.579Z,84.20
2019-05-05T04:52:04.468Z,90.00
2019-05-05T04:54:45.726Z,83.30
2019-05-05T04:57:24.015Z,86.30
2019-05-05T04:59:59.292Z,85.10
2019-05-05T05:02:59.416Z,80.90
2019-05-05T05:05:53.598Z,85.90
2019-05-05T05:08:28.834Z,80.90
2019-05-05T05:10:59.473Z,82.70
2019-05-05T05:13:34.771Z,80.50
2019-05-05T05:16:05.655Z,79.80
2019-05-05T05:18:39.256Z,79.70
2019-05-05T05:21:10.081Z,78.50
2019-05-05T05:23:57.495Z,78.70
2019-05-05T05:26:29.058Z,78.20
2019-05-05T05:29:04.630Z,77.80
2019-05-05T05:31:39.032Z,77.40
2019-05-05T05:34:15.605Z,77.70
2019-05-05T05:36:54.918Z,77.60
2019-05-05T05:39:44.083Z,78.30
2019-05-05T05:42:24.837Z,81.40
2019-05-05T05:45:15.703Z,85.20
2019-05-05T05:48:08.530Z,80.20
2019-05-05T05:51:25.091Z,79.20
2019-05-05T05:53:45.914Z,78.20
2019-05-05T05:59:33.938Z,78.10
2019-05-05T06:02:39.819Z,78.10
2019-05-05T06:35:44.477Z,80.30
2019-05-05T06:38:16.906Z,80.30
2019-05-05T06:41:07.365Z,83.50
2019-05-05T06:44:21.092Z,82.70
2019-05-05T06:47:09.847Z,83.60
2019-05-05T06:50:03.690Z,83.00
2019-05-05T06:52:45.126Z,79.80
2019-05-05T06:55:20.889Z,78.60
2019-05-05T06:58:13.846Z,79.70
2019-05-05T07:09:44.252Z,79.20
2019-05-05T07:12:24.047Z,78.60
2019-05-05T07:15:01.134Z,80.50
2019-05-05T07:17:37.403Z,80.10
2019-05-05T07:20:08.071Z,79.30
2019-05-05T07:22:58.449Z,78.80
2019-05-05T09:40:49.306Z,88.70
2019-05-05T09:43:18.997Z,87.70
2019-05-05T09:45:48.636Z,87.00
2019-05-05T09:48:18.657Z,86.90
2019-05-05T09:50:49.531Z,87.80
2019-05-05T09:53:19.518Z,85.90
2019-05-05T09:55:49.338Z,86.00
2019-05-05T09:58:19.132Z,84.80
2019-05-05T10:00:49.233Z,83.80
2019-05-05T10:03:19.035Z,83.90
2019-05-05T10:05:49.085Z,84.40
2019-05-05T10:08:23.637Z,84.50
2019-05-05T10:10:54.729Z,82.00
2019-05-05T10:13:24.796Z,85.20
2019-05-05T10:15:54.987Z,85.70
2019-05-05T10:18:34.027Z,82.00
2019-05-05T10:21:13.902Z,80.40
2019-05-05T10:23:45.619Z,79.10
2019-05-05T10:26:15.417Z,82.40
2019-05-05T10:28:45.329Z,78.70
2019-05-05T10:31:24.108Z,82.10
2019-05-05T10:33:58.196Z,77.50
2019-05-05T10:36:28.102Z,78.40
2019-05-05T10:39:10.301Z,79.50
2019-05-05T10:41:40.493Z,77.40
2019-05-05T10:44:10.684Z,78.00
2019-05-05T10:46:41.287Z,77.50
2019-05-05T10:49:13.607Z,78.10
2019-05-05T10:51:43.967Z,77.50
2019-05-05T10:54:14.927Z,79.20
2019-05-05T10:56:45.836Z,75.50
2019-05-05T10:59:16.957Z,76.60
2019-05-05T11:01:48.465Z,77.40
2019-05-05T11:25:37.105Z,78.10
2019-05-05T11:28:09.188Z,77.40
2019-05-05T11:30:41.275Z,74.40
2019-05-05T11:33:25.027Z,72.00
2019-05-05T11:36:05.078Z,77.40
2019-05-05T11:38:35.354Z,81.10
2019-05-05T11:41:05.620Z,70.40
2019-05-05T11:43:35.911Z,72.00
2019-05-05T11:46:06.282Z,69.60
2019-05-05T11:48:36.435Z,67.80
2019-05-05T11:51:06.842Z,67.00
2019-05-05T11:53:36.765Z,71.30
2019-05-05T11:56:06.875Z,68.10
2019-05-05T11:58:36.743Z,68.10
2019-05-05T12:01:06.546Z,71.30
2019-05-05T12:03:37.858Z,68.90
2019-05-05T12:06:07.740Z,70.20
2019-05-05T12:08:39.296Z,69.10
2019-05-05T12:11:10.611Z,67.60
2019-05-05T12:13:40.328Z,68.30
2019-05-05T12:16:11.221Z,66.10
2019-05-05T12:18:53.934Z,68.50
2019-05-05T14:13:45.474Z,65.30
2019-05-05T15:32:36.948Z,61.20
2019-05-05T15:35:07.709Z,60.30
2019-05-05T17:33:14.373Z,66.50
2019-05-05T18:47:37.886Z,71.40
2019-05-05T18:50:07.835Z,67.70
2019-05-05T18:52:37.388Z,70.00
2019-05-05T18:55:07.570Z,67.60
2019-05-05T18:57:37.264Z,66.90
2019-05-05T19:00:09.404Z,66.60
2019-05-05T19:02:53.625Z,66.30
2019-05-05T19:05:46.641Z,66.30
2019-05-05T19:08:51.134Z,65.80
2019-05-05T19:11:09.801Z,69.90
2019-05-05T19:13:39.719Z,71.70
2019-05-05T19:16:09.523Z,69.40
2019-05-05T19:18:46.210Z,72.10
2019-05-05T19:21:24.896Z,72.80
2019-05-05T19:23:54.560Z,72.40
2019-05-05T19:26:24.256Z,73.90
2019-05-05T19:28:54.736Z,71.70
2019-05-05T19:31:24.905Z,73.90
2019-05-05T19:34:04.616Z,72.80
2019-05-05T19:36:34.460Z,71.50
2019-05-05T19:39:05.883Z,70.90
2019-05-05T19:41:35.830Z,70.40
2019-05-05T19:44:06.126Z,73.60
2019-05-05T19:49:15.518Z,71.00
2019-05-05T19:51:45.154Z,72.10
2019-05-05T19:54:19.080Z,72.20
2019-05-05T19:56:48.736Z,72.60
2019-05-05T19:59:18.273Z,72.20
2019-05-05T20:01:48.264Z,71.70
2019-05-05T20:04:17.817Z,72.10
2019-05-05T20:06:48.021Z,74.10
2019-05-05T20:09:20.328Z,75.00
2019-05-05T20:11:50.273Z,72.20
2019-05-05T20:14:20.407Z,71.60
2019-05-05T20:17:07.023Z,71.10
2019-05-05T20:19:40.958Z,73.10
2019-05-05T20:22:10.488Z,71.70
2019-05-05T20:24:40.403Z,70.80
2019-05-05T20:27:11.224Z,71.40
2019-05-05T20:29:41.188Z,71.40
2019-05-05T20:32:10.727Z,71.90
2019-05-05T20:34:57.972Z,71.70
2019-05-05T20:37:36.172Z,71.60
2019-05-05T20:40:07.215Z,73.00
2019-05-05T20:42:36.824Z,72.70
2019-05-05T20:45:07.324Z,71.50
2019-05-05T20:47:37.357Z,71.20
2019-05-05T20:50:07.162Z,71.30
2019-05-05T20:52:37.188Z,70.90
2019-05-05T20:55:07.121Z,70.60
2019-05-05T20:57:37.142Z,70.80
2019-05-05T21:00:07.896Z,70.50
2019-05-05T21:02:37.842Z,70.50
2019-05-05T21:05:07.704Z,70.60
2019-05-05T21:07:37.888Z,70.40
2019-05-05T21:10:08.057Z,70.40
2019-05-05T21:12:41.927Z,70.80
2019-05-05T21:15:12.592Z,70.70
2019-05-05T21:17:46.886Z,70.80
2019-05-05T21:20:17.221Z,70.60
2019-05-05T21:22:55.926Z,70.60
2019-05-05T21:25:38.599Z,71.20
2019-05-05T21:28:08.301Z,71.20
2019-05-05T21:30:41.422Z,72.20
2019-05-05T21:33:10.071Z,71.60
2019-05-05T21:35:40.180Z,71.30
2019-05-05T21:38:10.147Z,71.30
2019-05-05T21:40:39.636Z,71.30
2019-05-05T21:43:09.162Z,71.50
2019-05-05T21:45:38.790Z,71.30
2019-05-05T21:48:09.586Z,71.80
2019-05-05T21:50:44.107Z,72.10
2019-05-05T21:53:39.190Z,71.80
2019-05-05T21:56:27.159Z,72.00
2019-05-05T22:01:29.088Z,72.20
2019-05-05T22:03:58.965Z,72.30
2019-05-05T22:06:28.961Z,72.30
2019-05-05T22:08:58.703Z,72.60
2019-05-05T22:11:28.395Z,72.70
2019-05-05T22:13:59.393Z,72.70
2019-05-05T22:16:29.423Z,72.80
2019-05-05T22:18:59.195Z,72.70
2019-05-05T22:21:39.045Z,73.70
2019-05-05T22:24:16.485Z,73.40
2019-05-05T22:26:46.539Z,73.40
2019-05-05T22:29:16.915Z,73.40
2019-05-05T22:31:47.570Z,73.40
2019-05-05T22:34:17.535Z,73.20
2019-05-05T22:36:47.342Z,73.00
2019-05-05T22:39:33.660Z,73.60
2019-05-05T22:42:06.049Z,74.00
2019-05-05T22:44:38.216Z,73.70
2019-05-05T22:47:09.049Z,73.90
2019-05-05T22:49:44.344Z,74.20
2019-05-05T22:52:18.299Z,73.90
2019-05-05T22:54:52.143Z,74.50
2019-05-05T22:57:30.886Z,75.40
2019-05-05T23:00:05.981Z,75.30
2019-05-05T23:02:43.990Z,75.30
2019-05-05T23:05:26.263Z,74.60
2019-05-05T23:07:56.920Z,74.10
2019-05-05T23:10:32.902Z,75.20
2019-05-05T23:13:13.558Z,75.50
2019-05-05T23:16:00.338Z,78.70
2019-05-05T23:18:30.656Z,77.50
2019-05-05T23:21:24.820Z,76.40
2019-05-05T23:24:16.712Z,75.30
2019-05-05T23:26:54.672Z,75.20
2019-05-05T23:29:27.068Z,75.30
2019-05-05T23:32:06.179Z,75.40
2019-05-05T23:34:33.826Z,75.10
2019-05-05T23:37:04.624Z,77.80
2019-05-05T23:39:37.671Z,78.00
2019-05-05T23:42:14.696Z,76.50
2019-05-05T23:44:53.591Z,75.70
2019-05-05T23:47:27.118Z,76.90
2019-05-05T23:50:00.211Z,77.10
2019-05-05T23:52:41.082Z,76.70
2019-05-05T23:55:27.538Z,76.10
2019-05-05T23:58:00.831Z,76.30
